Terminal Aerodrome Forecast
Issued by NWS Duluth, MN

Home | Current Version | Previous Version | Text Only | Print | Product List | Glossary On
Versions: 1 2 3 4 5 6 7 8 9 10 11 12 13 14 15 16 17 18 19 20 21 22 23 24 25 26 27 28 29 30 31 32 33
845
FTUS43 KDLH 051624 AAC
TAFINL
TAF AMD
KINL 051624Z 0516/0612 16005KT 2SM -SN OVC035
     FM051800 19006KT P6SM -SN OVC035
     FM052000 23006KT P6SM -SN OVC025
     FM060300 26003KT P6SM OVC020=

USA.gov is the U.S. government's official web portal to all federal, state and local government web resources and services.